sensor_id;sensor_type;location;lat;lon;timestamp;pressure;altitude;pressure_sealevel;temperature
24740;BMP280;45234;48.148;17.128;2023-02-18T00:00:27;100239.97;;;13.65
24740;BMP280;45234;48.148;17.128;2023-02-18T00:02:54;100253.63;;;13.61
24740;BMP280;45234;48.148;17.128;2023-02-18T00:05:23;100246.84;;;13.53
24740;BMP280;45234;48.148;17.128;2023-02-18T00:07:50;100248.44;;;13.48
24740;BMP280;45234;48.148;17.128;2023-02-18T00:10:17;100242.84;;;13.44
24740;BMP280;45234;48.148;17.128;2023-02-18T00:12:44;100249.66;;;13.45
24740;BMP280;45234;48.148;17.128;2023-02-18T00:15:11;100251.25;;;13.46
24740;BMP280;45234;48.148;17.128;2023-02-18T00:17:38;100246.84;;;13.47
24740;BMP280;45234;48.148;17.128;2023-02-18T00:20:05;100252.25;;;13.45
24740;BMP280;45234;48.148;17.128;2023-02-18T00:22:33;100238.84;;;13.48
24740;BMP280;45234;48.148;17.128;2023-02-18T00:24:59;100241.22;;;13.50
24740;BMP280;45234;48.148;17.128;2023-02-18T00:27:26;100251.03;;;13.54
24740;BMP280;45234;48.148;17.128;2023-02-18T00:29:53;100243.22;;;13.54
24740;BMP280;45234;48.148;17.128;2023-02-18T00:32:20;100245.38;;;13.57
24740;BMP280;45234;48.148;17.128;2023-02-18T00:34:47;100256.44;;;13.59
24740;BMP280;45234;48.148;17.128;2023-02-18T00:37:13;100251.81;;;13.61
24740;BMP280;45234;48.148;17.128;2023-02-18T00:39:40;100243.78;;;13.63
24740;BMP280;45234;48.148;17.128;2023-02-18T00:42:07;100240.75;;;13.66
24740;BMP280;45234;48.148;17.128;2023-02-18T00:44:34;100241.56;;;13.66
24740;BMP280;45234;48.148;17.128;2023-02-18T00:47:01;100239.53;;;13.68
24740;BMP280;45234;48.148;17.128;2023-02-18T00:49:27;100240.31;;;13.69
24740;BMP280;45234;48.148;17.128;2023-02-18T00:51:54;100237.34;;;13.72
24740;BMP280;45234;48.148;17.128;2023-02-18T00:54:21;100228.72;;;13.71
24740;BMP280;45234;48.148;17.128;2023-02-18T00:56:49;100226.44;;;13.82
24740;BMP280;45234;48.148;17.128;2023-02-18T00:59:16;100230.47;;;13.78
24740;BMP280;45234;48.148;17.128;2023-02-18T01:01:43;100229.28;;;13.80
24740;BMP280;45234;48.148;17.128;2023-02-18T01:04:10;100225.88;;;13.80
24740;BMP280;45234;48.148;17.128;2023-02-18T01:06:37;100223.84;;;13.82
24740;BMP280;45234;48.148;17.128;2023-02-18T01:09:04;100229.06;;;13.82
24740;BMP280;45234;48.148;17.128;2023-02-18T01:11:31;100233.47;;;13.81
24740;BMP280;45234;48.148;17.128;2023-02-18T01:13:58;100223.84;;;13.82
24740;BMP280;45234;48.148;17.128;2023-02-18T01:16:28;100230.66;;;13.83
24740;BMP280;45234;48.148;17.128;2023-02-18T01:18:55;100243.28;;;13.86
24740;BMP280;45234;48.148;17.128;2023-02-18T01:21:21;100230.25;;;13.86
24740;BMP280;45234;48.148;17.128;2023-02-18T01:23:49;100231.03;;;13.86
24740;BMP280;45234;48.148;17.128;2023-02-18T01:26:16;100222.19;;;13.87
24740;BMP280;45234;48.148;17.128;2023-02-18T01:28:43;100222.63;;;13.91
24740;BMP280;45234;48.148;17.128;2023-02-18T01:31:12;100230.81;;;13.88
24740;BMP280;45234;48.148;17.128;2023-02-18T01:33:39;100225.41;;;13.89
24740;BMP280;45234;48.148;17.128;2023-02-18T01:36:07;100221.19;;;13.88
24740;BMP280;45234;48.148;17.128;2023-02-18T01:38:35;100218.78;;;13.87
24740;BMP280;45234;48.148;17.128;2023-02-18T01:41:02;100213.38;;;13.88
24740;BMP280;45234;48.148;17.128;2023-02-18T01:43:29;100204.19;;;13.86
24740;BMP280;45234;48.148;17.128;2023-02-18T01:46:17;100207.28;;;13.69
24740;BMP280;45234;48.148;17.128;2023-02-18T01:48:49;100209.47;;;13.73
24740;BMP280;45234;48.148;17.128;2023-02-18T01:51:25;100209.31;;;13.67
24740;BMP280;45234;48.148;17.128;2023-02-18T01:53:57;100217.13;;;13.67
24740;BMP280;45234;48.148;17.128;2023-02-18T01:56:30;100211.25;;;13.34
24740;BMP280;45234;48.148;17.128;2023-02-18T01:59:00;100215.16;;;13.56
24740;BMP280;45234;48.148;17.128;2023-02-18T02:01:29;100220.34;;;13.63
24740;BMP280;45234;48.148;17.128;2023-02-18T02:03:57;100218.69;;;13.68
24740;BMP280;45234;48.148;17.128;2023-02-18T02:06:25;100207.28;;;13.69
24740;BMP280;45234;48.148;17.128;2023-02-18T02:08:56;100204.69;;;13.69
24740;BMP280;45234;48.148;17.128;2023-02-18T02:11:31;100216.50;;;13.72
24740;BMP280;45234;48.148;17.128;2023-02-18T02:22:52;100196.75;;;13.51
24740;BMP280;45234;48.148;17.128;2023-02-18T02:28:35;100209.78;;;13.45
24740;BMP280;45234;48.148;17.128;2023-02-18T02:47:50;100217.38;;;13.53
24740;BMP280;45234;48.148;17.128;2023-02-18T02:50:34;100224.41;;;13.52
24740;BMP280;45234;48.148;17.128;2023-02-18T02:53:10;100228.75;;;13.58
24740;BMP280;45234;48.148;17.128;2023-02-18T02:55:39;100236.53;;;13.71
24740;BMP280;45234;48.148;17.128;2023-02-18T02:58:06;100226.28;;;13.77
24740;BMP280;45234;48.148;17.128;2023-02-18T03:15:15;100232.19;;;13.97
24740;BMP280;45234;48.148;17.128;2023-02-18T03:18:07;100236.94;;;14.00
24740;BMP280;45234;48.148;17.128;2023-02-18T03:21:02;100233.34;;;14.01
24740;BMP280;45234;48.148;17.128;2023-02-18T03:23:31;100227.28;;;14.07
24740;BMP280;45234;48.148;17.128;2023-02-18T03:25:59;100237.38;;;14.03
24740;BMP280;45234;48.148;17.128;2023-02-18T03:28:29;100230.56;;;14.02
24740;BMP280;45234;48.148;17.128;2023-02-18T03:31:11;100245.22;;;13.97
24740;BMP280;45234;48.148;17.128;2023-02-18T03:34:00;100248.63;;;13.97
24740;BMP280;45234;48.148;17.128;2023-02-18T03:36:28;100243.41;;;13.97
24740;BMP280;45234;48.148;17.128;2023-02-18T03:41:32;100253.00;;;14.03
24740;BMP280;45234;48.148;17.128;2023-02-18T03:44:01;100248.59;;;14.04
24740;BMP280;45234;48.148;17.128;2023-02-18T03:46:30;100254.13;;;14.14
24740;BMP280;45234;48.148;17.128;2023-02-18T03:48:57;100252.13;;;14.16
24740;BMP280;45234;48.148;17.128;2023-02-18T03:51:24;100258.47;;;14.20
24740;BMP280;45234;48.148;17.128;2023-02-18T03:53:51;100250.44;;;14.22
24740;BMP280;45234;48.148;17.128;2023-02-18T03:56:18;100268.09;;;14.26
24740;BMP280;45234;48.148;17.128;2023-02-18T03:58:45;100264.44;;;14.34
24740;BMP280;45234;48.148;17.128;2023-02-18T04:01:13;100260.00;;;14.34
24740;BMP280;45234;48.148;17.128;2023-02-18T04:03:39;100259.56;;;14.37
24740;BMP280;45234;48.148;17.128;2023-02-18T04:06:07;100268.84;;;14.33
24740;BMP280;45234;48.148;17.128;2023-02-18T04:08:34;100267.97;;;14.39
24740;BMP280;45234;48.148;17.128;2023-02-18T04:11:03;100258.56;;;14.38
24740;BMP280;45234;48.148;17.128;2023-02-18T04:13:31;100269.44;;;14.35
24740;BMP280;45234;48.148;17.128;2023-02-18T04:15:57;100267.84;;;14.34
24740;BMP280;45234;48.148;17.128;2023-02-18T04:18:24;100267.22;;;14.32
24740;BMP280;45234;48.148;17.128;2023-02-18T04:20:51;100275.03;;;14.32
24740;BMP280;45234;48.148;17.128;2023-02-18T04:23:18;100270.84;;;14.31
24740;BMP280;45234;48.148;17.128;2023-02-18T04:25:45;100264.03;;;14.30
24740;BMP280;45234;48.148;17.128;2023-02-18T04:28:13;100269.22;;;14.30
24740;BMP280;45234;48.148;17.128;2023-02-18T04:30:42;100268.44;;;14.30
24740;BMP280;45234;48.148;17.128;2023-02-18T04:33:09;100280.13;;;14.27
24740;BMP280;45234;48.148;17.128;2023-02-18T04:35:36;100290.09;;;14.30
24740;BMP280;45234;48.148;17.128;2023-02-18T04:38:03;100278.09;;;14.29
24740;BMP280;45234;48.148;17.128;2023-02-18T04:40:30;100290.53;;;14.27
24740;BMP280;45234;48.148;17.128;2023-02-18T04:42:57;100300.53;;;14.30
24740;BMP280;45234;48.148;17.128;2023-02-18T04:45:25;100304.53;;;14.33
24740;BMP280;45234;48.148;17.128;2023-02-18T04:47:53;100307.44;;;14.18
24740;BMP280;45234;48.148;17.128;2023-02-18T04:50:20;100313.09;;;14.15
24740;BMP280;45234;48.148;17.128;2023-02-18T04:52:47;100308.69;;;14.09
24740;BMP280;45234;48.148;17.128;2023-02-18T04:55:14;100313.16;;;14.02
24740;BMP280;45234;48.148;17.128;2023-02-18T04:57:41;100312.97;;;13.97
24740;BMP280;45234;48.148;17.128;2023-02-18T05:00:09;100320.41;;;13.93
24740;BMP280;45234;48.148;17.128;2023-02-18T05:02:38;100320.00;;;13.90
24740;BMP280;45234;48.148;17.128;2023-02-18T05:05:05;100336.44;;;13.90
24740;BMP280;45234;48.148;17.128;2023-02-18T05:07:32;100338.09;;;13.85
24740;BMP280;45234;48.148;17.128;2023-02-18T05:10:00;100348.31;;;13.80
24740;BMP280;45234;48.148;17.128;2023-02-18T05:12:28;100348.13;;;13.75
24740;BMP280;45234;48.148;17.128;2023-02-18T05:14:55;100347.97;;;13.63
24740;BMP280;45234;48.148;17.128;2023-02-18T05:17:22;100354.19;;;13.55
24740;BMP280;45234;48.148;17.128;2023-02-18T05:19:48;100349.41;;;13.46
24740;BMP280;45234;48.148;17.128;2023-02-18T05:22:15;100357.41;;;13.44
24740;BMP280;45234;48.148;17.128;2023-02-18T05:24:42;100352.66;;;13.28
24740;BMP280;45234;48.148;17.128;2023-02-18T05:27:09;100354.06;;;13.17
24740;BMP280;45234;48.148;17.128;2023-02-18T05:29:35;100354.66;;;13.13
24740;BMP280;45234;48.148;17.128;2023-02-18T05:32:02;100356.66;;;13.11
24740;BMP280;45234;48.148;17.128;2023-02-18T05:34:29;100355.66;;;13.05
24740;BMP280;45234;48.148;17.128;2023-02-18T05:36:56;100367.47;;;13.01
24740;BMP280;45234;48.148;17.128;2023-02-18T05:39:22;100354.66;;;12.93
24740;BMP280;45234;48.148;17.128;2023-02-18T05:41:49;100358.69;;;12.89
24740;BMP280;45234;48.148;17.128;2023-02-18T05:44:16;100368.84;;;12.84
24740;BMP280;45234;48.148;17.128;2023-02-18T05:47:00;100382.09;;;12.76
24740;BMP280;45234;48.148;17.128;2023-02-18T05:49:28;100385.66;;;12.68
24740;BMP280;45234;48.148;17.128;2023-02-18T05:51:56;100374.25;;;12.69
24740;BMP280;45234;48.148;17.128;2023-02-18T05:54:24;100369.44;;;12.66
24740;BMP280;45234;48.148;17.128;2023-02-18T05:56:51;100367.81;;;12.58
24740;BMP280;45234;48.148;17.128;2023-02-18T05:59:18;100360.22;;;12.57
24740;BMP280;45234;48.148;17.128;2023-02-18T06:01:45;100368.63;;;12.59
24740;BMP280;45234;48.148;17.128;2023-02-18T06:04:13;100377.59;;;12.63
24740;BMP280;45234;48.148;17.128;2023-02-18T06:06:40;100383.81;;;12.62
24740;BMP280;45234;48.148;17.128;2023-02-18T06:09:07;100386.66;;;12.67
24740;BMP280;45234;48.148;17.128;2023-02-18T06:11:34;100383.22;;;12.60
24740;BMP280;45234;48.148;17.128;2023-02-18T06:14:02;100380.63;;;12.60
24740;BMP280;45234;48.148;17.128;2023-02-18T06:16:29;100383.22;;;12.60
24740;BMP280;45234;48.148;17.128;2023-02-18T06:18:56;100376.22;;;12.60
24740;BMP280;45234;48.148;17.128;2023-02-18T06:21:23;100372.41;;;12.63
24740;BMP280;45234;48.148;17.128;2023-02-18T06:23:50;100373.03;;;12.65
24740;BMP280;45234;48.148;17.128;2023-02-18T06:26:17;100369.06;;;12.69
24740;BMP280;45234;48.148;17.128;2023-02-18T06:28:44;100376.44;;;12.72
24740;BMP280;45234;48.148;17.128;2023-02-18T06:31:10;100375.28;;;12.75
24740;BMP280;45234;48.148;17.128;2023-02-18T06:33:37;100368.03;;;12.77
24740;BMP280;45234;48.148;17.128;2023-02-18T06:36:07;100370.88;;;12.75
24740;BMP280;45234;48.148;17.128;2023-02-18T06:38:36;100371.44;;;12.77
24740;BMP280;45234;48.148;17.128;2023-02-18T06:41:03;100378.66;;;12.82
24740;BMP280;45234;48.148;17.128;2023-02-18T06:43:30;100380.28;;;12.89
24740;BMP280;45234;48.148;17.128;2023-02-18T06:45:57;100381.06;;;12.90
24740;BMP280;45234;48.148;17.128;2023-02-18T06:48:23;100379.25;;;12.90
24740;BMP280;45234;48.148;17.128;2023-02-18T06:50:50;100385.50;;;12.89
24740;BMP280;45234;48.148;17.128;2023-02-18T06:53:17;100385.50;;;12.89
24740;BMP280;45234;48.148;17.128;2023-02-18T06:55:44;100376.66;;;12.90
24740;BMP280;45234;48.148;17.128;2023-02-18T06:58:12;100377.88;;;12.88
24740;BMP280;45234;48.148;17.128;2023-02-18T07:00:39;100382.47;;;12.86
24740;BMP280;45234;48.148;17.128;2023-02-18T07:03:06;100377.69;;;12.89
24740;BMP280;45234;48.148;17.128;2023-02-18T07:05:33;100371.06;;;12.93
24740;BMP280;45234;48.148;17.128;2023-02-18T07:08:00;100377.09;;;13.00
24740;BMP280;45234;48.148;17.128;2023-02-18T07:10:27;100371.91;;;13.07
24740;BMP280;45234;48.148;17.128;2023-02-18T07:12:54;100380.06;;;13.11
24740;BMP280;45234;48.148;17.128;2023-02-18T07:15:21;100376.66;;;13.10
24740;BMP280;45234;48.148;17.128;2023-02-18T07:17:50;100373.06;;;13.11
24740;BMP280;45234;48.148;17.128;2023-02-18T07:20:18;100374.66;;;13.12
24740;BMP280;45234;48.148;17.128;2023-02-18T07:22:45;100380.69;;;13.13
24740;BMP280;45234;48.148;17.128;2023-02-18T07:25:12;100378.28;;;13.18
24740;BMP280;45234;48.148;17.128;2023-02-18T07:27:40;100371.47;;;13.17
24740;BMP280;45234;48.148;17.128;2023-02-18T07:30:08;100362.66;;;13.18
24740;BMP280;45234;48.148;17.128;2023-02-18T07:32:35;100355.28;;;13.28
24740;BMP280;45234;48.148;17.128;2023-02-18T07:35:03;100359.66;;;13.34
24740;BMP280;45234;48.148;17.128;2023-02-18T07:37:31;100360.44;;;13.34
24740;BMP280;45234;48.148;17.128;2023-02-18T07:39:57;100373.06;;;13.31
24740;BMP280;45234;48.148;17.128;2023-02-18T07:42:24;100366.66;;;13.33
24740;BMP280;45234;48.148;17.128;2023-02-18T07:44:51;100378.06;;;13.32
24740;BMP280;45234;48.148;17.128;2023-02-18T07:47:18;100376.66;;;13.30
24740;BMP280;45234;48.148;17.128;2023-02-18T07:49:46;100382.47;;;13.25
24740;BMP280;45234;48.148;17.128;2023-02-18T07:52:14;100373.06;;;13.31
24740;BMP280;45234;48.148;17.128;2023-02-18T07:54:41;100369.47;;;13.39
24740;BMP280;45234;48.148;17.128;2023-02-18T07:57:08;100377.84;;;13.47
24740;BMP280;45234;48.148;17.128;2023-02-18T07:59:35;100362.59;;;13.57
24740;BMP280;45234;48.148;17.128;2023-02-18T08:02:02;100360.38;;;13.67
24740;BMP280;45234;48.148;17.128;2023-02-18T08:04:31;100362.94;;;13.81
24740;BMP280;45234;48.148;17.128;2023-02-18T08:06:58;100354.69;;;13.90
24740;BMP280;45234;48.148;17.128;2023-02-18T08:09:24;100352.66;;;13.99
24740;BMP280;45234;48.148;17.128;2023-02-18T08:11:51;100354.00;;;14.08
24740;BMP280;45234;48.148;17.128;2023-02-18T08:14:18;100356.63;;;14.08
24740;BMP280;45234;48.148;17.128;2023-02-18T08:16:45;100353.81;;;14.10
24740;BMP280;45234;48.148;17.128;2023-02-18T08:19:11;100353.19;;;14.14
24740;BMP280;45234;48.148;17.128;2023-02-18T08:21:38;100366.81;;;14.16
24740;BMP280;45234;48.148;17.128;2023-02-18T08:24:05;100364.34;;;14.28
24740;BMP280;45234;48.148;17.128;2023-02-18T08:26:33;100365.13;;;14.35
24740;BMP280;45234;48.148;17.128;2023-02-18T08:29:00;100367.44;;;14.43
24740;BMP280;45234;48.148;17.128;2023-02-18T08:31:29;100363.44;;;14.47
24740;BMP280;45234;48.148;17.128;2023-02-18T08:33:57;100360.19;;;14.52
24740;BMP280;45234;48.148;17.128;2023-02-18T08:36:24;100354.56;;;14.55
24740;BMP280;45234;48.148;17.128;2023-02-18T08:38:51;100360.84;;;14.72
24740;BMP280;45234;48.148;17.128;2023-02-18T08:41:18;100351.09;;;14.86
24740;BMP280;45234;48.148;17.128;2023-02-18T08:43:45;100355.47;;;14.92
24740;BMP280;45234;48.148;17.128;2023-02-18T08:46:13;100348.59;;;14.97
24740;BMP280;45234;48.148;17.128;2023-02-18T08:48:50;100344.19;;;14.98
24740;BMP280;45234;48.148;17.128;2023-02-18T08:51:20;100343.63;;;14.89
24740;BMP280;45234;48.148;17.128;2023-02-18T08:53:47;100347.50;;;14.87
24740;BMP280;45234;48.148;17.128;2023-02-18T08:56:15;100341.31;;;14.81
24740;BMP280;45234;48.148;17.128;2023-02-18T08:58:43;100351.16;;;14.79
24740;BMP280;45234;48.148;17.128;2023-02-18T09:01:11;100347.19;;;14.76
24740;BMP280;45234;48.148;17.128;2023-02-18T09:03:39;100341.53;;;14.79
24740;BMP280;45234;48.148;17.128;2023-02-18T09:06:06;100338.41;;;14.89
24740;BMP280;45234;48.148;17.128;2023-02-18T09:08:33;100332.78;;;14.92
24740;BMP280;45234;48.148;17.128;2023-02-18T09:11:02;100337.41;;;14.90
24740;BMP280;45234;48.148;17.128;2023-02-18T09:13:30;100348.31;;;14.87
24740;BMP280;45234;48.148;17.128;2023-02-18T09:16:00;100342.09;;;14.82
24740;BMP280;45234;48.148;17.128;2023-02-18T09:18:27;100342.31;;;14.80
24740;BMP280;45234;48.148;17.128;2023-02-18T09:20:58;100346.38;;;14.76
24740;BMP280;45234;48.148;17.128;2023-02-18T09:23:27;100334.94;;;14.77
24740;BMP280;45234;48.148;17.128;2023-02-18T09:25:58;100340.31;;;14.82
24740;BMP280;45234;48.148;17.128;2023-02-18T09:28:25;100337.06;;;14.87
24740;BMP280;45234;48.148;17.128;2023-02-18T09:30:52;100341.19;;;14.94
24740;BMP280;45234;48.148;17.128;2023-02-18T09:33:19;100337.38;;;14.97
24740;BMP280;45234;48.148;17.128;2023-02-18T09:35:47;100330.47;;;15.02
24740;BMP280;45234;48.148;17.128;2023-02-18T09:38:16;100340.50;;;15.05
24740;BMP280;45234;48.148;17.128;2023-02-18T09:40:49;100341.66;;;15.09
24740;BMP280;45234;48.148;17.128;2023-02-18T09:43:28;100324.41;;;15.08
24740;BMP280;45234;48.148;17.128;2023-02-18T09:45:56;100326.44;;;15.25
24740;BMP280;45234;48.148;17.128;2023-02-18T09:48:27;100328.78;;;15.33
24740;BMP280;45234;48.148;17.128;2023-02-18T09:50:57;100339.31;;;15.44
24740;BMP280;45234;48.148;17.128;2023-02-18T09:53:25;100329.88;;;15.62
24740;BMP280;45234;48.148;17.128;2023-02-18T09:55:54;100325.09;;;15.70
24740;BMP280;45234;48.148;17.128;2023-02-18T09:58:27;100320.53;;;15.84
24740;BMP280;45234;48.148;17.128;2023-02-18T10:03:37;100309.19;;;16.02
24740;BMP280;45234;48.148;17.128;2023-02-18T10:06:15;100312.84;;;16.01
24740;BMP280;45234;48.148;17.128;2023-02-18T10:08:48;100309.44;;;16.12
24740;BMP280;45234;48.148;17.128;2023-02-18T10:11:34;100295.41;;;16.24
24740;BMP280;45234;48.148;17.128;2023-02-18T10:14:04;100301.22;;;16.50
24740;BMP280;45234;48.148;17.128;2023-02-18T10:16:34;100299.91;;;16.59
24740;BMP280;45234;48.148;17.128;2023-02-18T10:19:14;100288.38;;;16.60
24740;BMP280;45234;48.148;17.128;2023-02-18T10:21:44;100283.41;;;16.58
24740;BMP280;45234;48.148;17.128;2023-02-18T10:26:45;100281.34;;;16.60
24740;BMP280;45234;48.148;17.128;2023-02-18T10:29:17;100284.53;;;16.63
24740;BMP280;45234;48.148;17.128;2023-02-18T10:34:47;100279.28;;;16.74
24740;BMP280;45234;48.148;17.128;2023-02-18T10:40:08;100273.59;;;16.89
24740;BMP280;45234;48.148;17.128;2023-02-18T10:42:42;100275.63;;;16.98
24740;BMP280;45234;48.148;17.128;2023-02-18T10:50:44;100270.19;;;17.00
24740;BMP280;45234;48.148;17.128;2023-02-18T10:53:32;100265.38;;;16.85
24740;BMP280;45234;48.148;17.128;2023-02-18T10:56:00;100259.69;;;17.00
24740;BMP280;45234;48.148;17.128;2023-02-18T10:58:46;100258.66;;;17.01
24740;BMP280;45234;48.148;17.128;2023-02-18T11:01:18;100258.31;;;17.09
24740;BMP280;45234;48.148;17.128;2023-02-18T11:03:47;100245.03;;;17.16
24740;BMP280;45234;48.148;17.128;2023-02-18T11:08:47;100252.59;;;17.12
24740;BMP280;45234;48.148;17.128;2023-02-18T11:11:24;100237.47;;;17.03
24740;BMP280;45234;48.148;17.128;2023-02-18T11:13:56;100237.16;;;16.99
24740;BMP280;45234;48.148;17.128;2023-02-18T11:16:35;100233.50;;;17.00
24740;BMP280;45234;48.148;17.128;2023-02-18T11:19:02;100241.47;;;16.93
24740;BMP280;45234;48.148;17.128;2023-02-18T11:21:31;100240.44;;;16.94
24740;BMP280;45234;48.148;17.128;2023-02-18T11:24:08;100227.38;;;16.83
24740;BMP280;45234;48.148;17.128;2023-02-18T11:26:37;100214.81;;;16.85
24740;BMP280;45234;48.148;17.128;2023-02-18T11:29:06;100216.00;;;16.89
24740;BMP280;45234;48.148;17.128;2023-02-18T11:31:40;100195.59;;;16.91
24740;BMP280;45234;48.148;17.128;2023-02-18T11:34:15;100198.41;;;17.01
24740;BMP280;45234;48.148;17.128;2023-02-18T11:36:44;100193.97;;;17.02
24740;BMP280;45234;48.148;17.128;2023-02-18T11:39:20;100194.09;;;16.95
24740;BMP280;45234;48.148;17.128;2023-02-18T11:41:54;100192.84;;;16.97
24740;BMP280;45234;48.148;17.128;2023-02-18T11:44:32;100180.66;;;17.03
24740;BMP280;45234;48.148;17.128;2023-02-18T11:47:05;100172.38;;;16.94
24740;BMP280;45234;48.148;17.128;2023-02-18T11:49:44;100167.47;;;16.98
24740;BMP280;45234;48.148;17.128;2023-02-18T11:52:32;100147.03;;;17.12
24740;BMP280;45234;48.148;17.128;2023-02-18T11:57:29;100147.72;;;17.52
24740;BMP280;45234;48.148;17.128;2023-02-18T11:59:57;100142.94;;;17.49
24740;BMP280;45234;48.148;17.128;2023-02-18T12:02:35;100135.94;;;17.38
24740;BMP280;45234;48.148;17.128;2023-02-18T12:08:00;100129.31;;;17.02
24740;BMP280;45234;48.148;17.128;2023-02-18T12:13:27;100142.91;;;16.76
24740;BMP280;45234;48.148;17.128;2023-02-18T12:21:30;100104.06;;;16.68
24740;BMP280;45234;48.148;17.128;2023-02-18T12:24:10;100104.47;;;16.65
24740;BMP280;45234;48.148;17.128;2023-02-18T12:32:14;100092.28;;;16.30
24740;BMP280;45234;48.148;17.128;2023-02-18T12:48:55;100066.72;;;16.32
24740;BMP280;45234;48.148;17.128;2023-02-18T12:57:26;100048.75;;;16.24
24740;BMP280;45234;48.148;17.128;2023-02-18T13:06:00;100029.50;;;16.70
24740;BMP280;45234;48.148;17.128;2023-02-18T13:14:52;100020.91;;;16.75
24740;BMP280;45234;48.148;17.128;2023-02-18T13:17:26;100022.06;;;16.79
24740;BMP280;45234;48.148;17.128;2023-02-18T13:20:05;100008.72;;;16.80
24740;BMP280;45234;48.148;17.128;2023-02-18T13:22:33;100005.75;;;16.88
24740;BMP280;45234;48.148;17.128;2023-02-18T13:25:00;100000.81;;;16.92
24740;BMP280;45234;48.148;17.128;2023-02-18T13:27:40;99991.00;;;16.99
24740;BMP280;45234;48.148;17.128;2023-02-18T13:30:30;99985.00;;;16.87
24740;BMP280;45234;48.148;17.128;2023-02-18T13:40:43;99973.84;;;16.91
24740;BMP280;45234;48.148;17.128;2023-02-18T13:48:29;99976.69;;;16.90
24740;BMP280;45234;48.148;17.128;2023-02-18T13:51:03;99970.91;;;16.88
24740;BMP280;45234;48.148;17.128;2023-02-18T13:53:39;99973.03;;;16.91
24740;BMP280;45234;48.148;17.128;2023-02-18T13:58:47;99954.97;;;16.89
24740;BMP280;45234;48.148;17.128;2023-02-18T14:06:25;99948.44;;;16.92
24740;BMP280;45234;48.148;17.128;2023-02-18T14:09:03;99945.28;;;16.90
24740;BMP280;45234;48.148;17.128;2023-02-18T14:11:36;99934.63;;;16.96
24740;BMP280;45234;48.148;17.128;2023-02-18T14:22:33;99909.53;;;16.79
24740;BMP280;45234;48.148;17.128;2023-02-18T14:27:40;99920.44;;;16.76
24740;BMP280;45234;48.148;17.128;2023-02-18T14:30:27;99920.06;;;16.67
24740;BMP280;45234;48.148;17.128;2023-02-18T14:32:58;99921.44;;;16.75
24740;BMP280;45234;48.148;17.128;2023-02-18T14:35:38;99916.72;;;16.72
24740;BMP280;45234;48.148;17.128;2023-02-18T14:48:55;99901.47;;;16.52
24740;BMP280;45234;48.148;17.128;2023-02-18T14:51:25;99881.81;;;16.49
24740;BMP280;45234;48.148;17.128;2023-02-18T14:53:54;99894.56;;;16.46
24740;BMP280;45234;48.148;17.128;2023-02-18T14:56:21;99880.03;;;16.38
24740;BMP280;45234;48.148;17.128;2023-02-18T14:58:55;99881.00;;;16.32
24740;BMP280;45234;48.148;17.128;2023-02-18T15:01:30;99887.59;;;16.23
24740;BMP280;45234;48.148;17.128;2023-02-18T15:03:57;99894.59;;;16.17
24740;BMP280;45234;48.148;17.128;2023-02-18T15:06:36;99881.09;;;16.09
24740;BMP280;45234;48.148;17.128;2023-02-18T15:09:14;99882.84;;;16.03
24740;BMP280;45234;48.148;17.128;2023-02-18T15:11:47;99869.75;;;16.03
24740;BMP280;45234;48.148;17.128;2023-02-18T15:14:39;99864.53;;;15.92
24740;BMP280;45234;48.148;17.128;2023-02-18T15:17:14;99865.16;;;15.94
24740;BMP280;45234;48.148;17.128;2023-02-18T15:19:51;99865.38;;;15.92
24740;BMP280;45234;48.148;17.128;2023-02-18T15:22:26;99856.31;;;15.83
24740;BMP280;45234;48.148;17.128;2023-02-18T15:24:56;99865.03;;;15.88
24740;BMP280;45234;48.148;17.128;2023-02-18T15:27:28;99866.06;;;15.87
24740;BMP280;45234;48.148;17.128;2023-02-18T15:29:58;99869.91;;;15.85
24740;BMP280;45234;48.148;17.128;2023-02-18T15:32:31;99871.63;;;15.79
24740;BMP280;45234;48.148;17.128;2023-02-18T15:35:00;99867.91;;;15.75
24740;BMP280;45234;48.148;17.128;2023-02-18T15:37:29;99864.19;;;15.71
24740;BMP280;45234;48.148;17.128;2023-02-18T15:39:57;99860.44;;;15.67
24740;BMP280;45234;48.148;17.128;2023-02-18T15:42:29;99859.19;;;15.58
24740;BMP280;45234;48.148;17.128;2023-02-18T15:45:02;99856.25;;;15.55
24740;BMP280;45234;48.148;17.128;2023-02-18T15:47:30;99856.97;;;15.50
24740;BMP280;45234;48.148;17.128;2023-02-18T15:49:59;99858.97;;;15.48
24740;BMP280;45234;48.148;17.128;2023-02-18T15:52:33;99853.66;;;15.43
24740;BMP280;45234;48.148;17.128;2023-02-18T15:55:10;99865.59;;;15.39
24740;BMP280;45234;48.148;17.128;2023-02-18T15:57:38;99854.56;;;15.37
24740;BMP280;45234;48.148;17.128;2023-02-18T16:00:15;99857.31;;;15.30
24740;BMP280;45234;48.148;17.128;2023-02-18T16:03:41;99860.59;;;15.26
24740;BMP280;45234;48.148;17.128;2023-02-18T16:05:42;99862.66;;;15.24
24740;BMP280;45234;48.148;17.128;2023-02-18T16:08:24;99860.72;;;15.19
24740;BMP280;45234;48.148;17.128;2023-02-18T16:10:58;99858.78;;;15.14
24740;BMP280;45234;48.148;17.128;2023-02-18T16:13:28;99857.19;;;15.13
24740;BMP280;45234;48.148;17.128;2023-02-18T16:15:57;99857.91;;;15.09
24740;BMP280;45234;48.148;17.128;2023-02-18T16:18:41;99857.91;;;14.97
24740;BMP280;45234;48.148;17.128;2023-02-18T16:23:45;99864.94;;;14.97
24740;BMP280;45234;48.148;17.128;2023-02-18T16:26:30;99869.81;;;14.93
24740;BMP280;45234;48.148;17.128;2023-02-18T16:31:49;99861.63;;;14.90
24740;BMP280;45234;48.148;17.128;2023-02-18T16:34:16;99859.25;;;14.88
24740;BMP280;45234;48.148;17.128;2023-02-18T16:36:44;99866.03;;;14.89
24740;BMP280;45234;48.148;17.128;2023-02-18T16:39:32;99858.00;;;14.79
24740;BMP280;45234;48.148;17.128;2023-02-18T16:41:59;99850.16;;;14.79
24740;BMP280;45234;48.148;17.128;2023-02-18T16:44:26;99850.63;;;14.76
24740;BMP280;45234;48.148;17.128;2023-02-18T16:46:53;99863.06;;;14.74